createdAt,value
2022-12-26T00:00:38.091Z,12.20
2022-12-26T00:03:05.152Z,12.19
2022-12-26T00:05:37.062Z,12.18
2022-12-26T00:08:04.297Z,12.19
2022-12-26T00:10:31.191Z,12.17
2022-12-26T00:13:39.542Z,12.15
2022-12-26T00:15:45.085Z,12.15
2022-12-26T00:18:12.118Z,12.12
2022-12-26T00:20:39.103Z,12.12
2022-12-26T00:23:06.173Z,12.09
2022-12-26T00:25:34.711Z,12.09
2022-12-26T00:28:01.900Z,12.09
2022-12-26T00:30:29.051Z,12.11
2022-12-26T00:32:56.160Z,12.13
2022-12-26T00:35:23.161Z,12.14
2022-12-26T00:37:50.082Z,12.15
2022-12-26T00:40:17.051Z,12.16
2022-12-26T00:42:43.997Z,12.17
2022-12-26T00:45:11.150Z,12.16
2022-12-26T00:47:38.067Z,12.17
2022-12-26T00:50:13.194Z,12.18
2022-12-26T00:52:42.100Z,12.20
2022-12-26T00:55:09.561Z,12.22
2022-12-26T00:57:36.529Z,12.22
2022-12-26T01:00:04.437Z,12.23
2022-12-26T01:02:40.917Z,12.24
2022-12-26T01:05:10.389Z,12.26
2022-12-26T01:08:20.949Z,12.26
2022-12-26T01:10:25.790Z,12.27
2022-12-26T01:12:52.686Z,12.27
2022-12-26T01:15:20.010Z,12.29
2022-12-26T01:17:47.083Z,12.29
2022-12-26T01:20:15.232Z,12.28
2022-12-26T01:22:42.133Z,12.28
2022-12-26T01:25:09.515Z,12.30
2022-12-26T01:27:36.422Z,12.30
2022-12-26T01:30:03.912Z,12.31
2022-12-26T01:32:30.825Z,12.31
2022-12-26T01:34:57.762Z,12.32
2022-12-26T01:37:24.690Z,12.33
2022-12-26T01:39:54.263Z,12.34
2022-12-26T01:42:24.115Z,12.34
2022-12-26T01:45:25.361Z,12.34
2022-12-26T01:48:22.693Z,12.32
2022-12-26T01:50:58.947Z,12.33
2022-12-26T01:53:32.890Z,12.32
2022-12-26T01:56:03.511Z,12.31
2022-12-26T01:58:43.706Z,12.31
2022-12-26T02:01:11.466Z,12.31
2022-12-26T02:03:58.882Z,12.29
2022-12-26T02:06:25.914Z,12.28
2022-12-26T02:08:53.425Z,12.24
2022-12-26T02:11:29.514Z,12.23
2022-12-26T02:13:57.093Z,12.23
2022-12-26T02:16:25.897Z,12.23
2022-12-26T02:18:52.958Z,12.24
2022-12-26T02:21:37.712Z,12.23
2022-12-26T02:24:23.853Z,12.23
2022-12-26T02:27:23.120Z,12.22
2022-12-26T02:30:10.882Z,12.22
2022-12-26T02:32:43.494Z,12.19
2022-12-26T02:35:21.464Z,12.20
2022-12-26T02:38:12.397Z,12.21
2022-12-26T02:40:48.577Z,12.21
2022-12-26T02:43:45.491Z,12.19
2022-12-26T02:46:52.048Z,12.16
2022-12-26T02:49:23.914Z,12.16
2022-12-26T02:52:24.465Z,12.14
2022-12-26T02:55:20.503Z,12.14
2022-12-26T02:58:14.926Z,12.11
2022-12-26T03:01:01.856Z,12.11
2022-12-26T03:03:50.049Z,12.09
2022-12-26T03:06:41.435Z,12.01
2022-12-26T03:09:30.724Z,12.03
2022-12-26T03:12:19.328Z,11.97
2022-12-26T03:14:54.273Z,11.94
2022-12-26T03:17:32.285Z,11.93
2022-12-26T03:20:14.235Z,11.89
2022-12-26T03:22:43.957Z,11.90
2022-12-26T03:25:32.848Z,11.88
2022-12-26T03:27:59.926Z,11.87
2022-12-26T03:30:45.406Z,11.83
2022-12-26T03:33:31.056Z,11.83
2022-12-26T03:35:58.856Z,11.83
2022-12-26T03:38:51.522Z,11.80
2022-12-26T03:41:51.468Z,11.77
2022-12-26T03:44:53.894Z,11.73
2022-12-26T03:48:01.201Z,11.73
2022-12-26T03:50:52.365Z,11.75
2022-12-26T03:53:59.657Z,11.71
2022-12-26T03:56:52.947Z,11.71
2022-12-26T04:00:01.356Z,11.67
2022-12-26T04:02:48.668Z,11.67
2022-12-26T04:05:34.950Z,11.63
2022-12-26T04:08:24.430Z,11.64
2022-12-26T04:11:13.731Z,11.61
2022-12-26T04:14:05.684Z,11.63
2022-12-26T04:16:54.864Z,11.63
2022-12-26T04:19:27.781Z,11.62
2022-12-26T04:22:33.923Z,11.68
2022-12-26T04:25:49.626Z,11.69
2022-12-26T04:28:38.319Z,11.69
2022-12-26T04:31:44.785Z,11.71
2022-12-26T04:34:58.983Z,11.70
2022-12-26T04:37:45.635Z,11.73
2022-12-26T04:40:36.977Z,11.75
2022-12-26T04:43:49.124Z,11.77
2022-12-26T04:46:10.600Z,11.79
2022-12-26T04:49:02.575Z,11.82
2022-12-26T04:51:29.589Z,11.81
2022-12-26T04:53:56.458Z,11.85
2022-12-26T04:56:23.359Z,11.88
2022-12-26T04:58:50.260Z,11.88
2022-12-26T05:01:35.669Z,11.90
2022-12-26T05:04:21.043Z,11.93
2022-12-26T05:07:06.680Z,11.92
2022-12-26T05:09:36.837Z,11.92
2022-12-26T05:12:04.915Z,11.90
2022-12-26T05:14:32.048Z,11.90
2022-12-26T05:17:18.191Z,11.90
2022-12-26T05:20:03.924Z,11.93
2022-12-26T05:22:51.974Z,11.87
2022-12-26T05:25:44.246Z,11.87
2022-12-26T05:28:31.284Z,11.84
2022-12-26T05:30:58.490Z,11.81
2022-12-26T05:33:44.082Z,11.81
2022-12-26T05:36:11.231Z,11.80
2022-12-26T05:38:38.172Z,11.79
2022-12-26T05:41:05.259Z,11.78
2022-12-26T05:43:32.231Z,11.76
2022-12-26T05:45:59.264Z,11.74
2022-12-26T05:48:26.217Z,11.72
2022-12-26T05:50:53.233Z,11.73
2022-12-26T05:53:20.092Z,11.72
2022-12-26T05:55:47.009Z,11.69
2022-12-26T05:58:13.921Z,11.68
2022-12-26T06:00:40.888Z,11.67
2022-12-26T06:03:07.983Z,11.65
2022-12-26T06:05:35.037Z,11.61
2022-12-26T06:08:01.915Z,11.57
2022-12-26T06:10:29.954Z,11.57
2022-12-26T06:12:57.174Z,11.56
2022-12-26T06:15:24.068Z,11.55
2022-12-26T06:17:51.025Z,11.57
2022-12-26T06:20:17.971Z,11.53
2022-12-26T06:22:44.932Z,11.54
2022-12-26T06:25:11.850Z,11.52
2022-12-26T06:27:38.756Z,11.53
2022-12-26T06:30:06.197Z,11.50
2022-12-26T06:32:33.931Z,11.48
2022-12-26T06:35:00.907Z,11.44
2022-12-26T06:37:28.004Z,11.45
2022-12-26T06:39:54.926Z,11.40
2022-12-26T06:42:21.931Z,11.39
2022-12-26T06:44:48.799Z,11.38
2022-12-26T06:47:15.689Z,11.34
2022-12-26T06:49:42.765Z,11.34
2022-12-26T06:52:11.327Z,11.34
2022-12-26T06:54:38.198Z,11.27
2022-12-26T06:57:05.142Z,11.23
2022-12-26T06:59:32.249Z,11.22
2022-12-26T07:01:59.297Z,11.16
2022-12-26T07:04:26.369Z,11.15
2022-12-26T07:06:53.239Z,11.11
2022-12-26T07:09:20.509Z,11.09
2022-12-26T07:11:49.813Z,11.01
2022-12-26T07:14:17.120Z,11.03
2022-12-26T07:16:45.239Z,11.00
2022-12-26T07:19:13.451Z,10.95
2022-12-26T07:21:41.310Z,10.92
2022-12-26T07:24:15.461Z,10.88
2022-12-26T07:26:42.646Z,10.86
2022-12-26T07:29:10.645Z,10.78
2022-12-26T07:31:37.595Z,10.80
2022-12-26T07:34:04.722Z,10.76
2022-12-26T07:36:31.601Z,10.75
2022-12-26T07:38:58.681Z,10.80
2022-12-26T07:41:43.990Z,10.78
2022-12-26T07:44:11.669Z,10.75
2022-12-26T07:46:38.709Z,10.76
2022-12-26T07:49:05.644Z,10.75
2022-12-26T07:51:32.605Z,10.71
2022-12-26T07:53:59.482Z,10.63
2022-12-26T07:56:26.423Z,10.61
2022-12-26T07:58:53.477Z,10.67
2022-12-26T08:01:20.678Z,10.63
2022-12-26T08:03:51.035Z,10.66
2022-12-26T08:06:19.004Z,10.60
2022-12-26T08:08:50.760Z,10.62
2022-12-26T08:11:23.225Z,10.61
2022-12-26T08:13:51.367Z,10.59
2022-12-26T08:16:18.869Z,10.51
2022-12-26T08:18:45.893Z,10.51
2022-12-26T08:21:13.218Z,10.46
2022-12-26T08:23:40.447Z,10.44
2022-12-26T08:26:12.574Z,10.42
2022-12-26T08:28:39.648Z,10.46
2022-12-26T08:31:11.033Z,10.44
2022-12-26T08:33:37.911Z,10.41
2022-12-26T08:36:06.479Z,10.40
2022-12-26T08:38:34.118Z,10.31
2022-12-26T08:41:01.304Z,10.32
2022-12-26T08:46:15.629Z,10.22
2022-12-26T08:48:42.896Z,10.24
2022-12-26T08:51:19.309Z,10.28
2022-12-26T08:53:47.086Z,10.25
2022-12-26T08:56:15.980Z,10.21
2022-12-26T08:58:43.409Z,10.28
2022-12-26T09:01:15.271Z,10.26
2022-12-26T09:03:42.527Z,10.29
2022-12-26T09:06:10.376Z,10.27
2022-12-26T09:08:38.259Z,10.24
2022-12-26T09:11:16.770Z,10.25
2022-12-26T09:13:44.443Z,10.26
2022-12-26T09:16:21.915Z,10.27
2022-12-26T09:18:52.979Z,10.29
2022-12-26T09:21:19.838Z,10.32
2022-12-26T09:23:46.757Z,10.37
2022-12-26T09:26:19.903Z,10.45
2022-12-26T09:28:47.507Z,10.45
2022-12-26T09:31:19.816Z,10.46
2022-12-26T09:33:49.975Z,10.46
2022-12-26T09:36:20.956Z,10.44
2022-12-26T09:38:49.293Z,10.45
2022-12-26T09:41:31.816Z,10.47
2022-12-26T09:43:58.818Z,10.55
2022-12-26T09:46:36.965Z,10.57
2022-12-26T09:49:10.459Z,10.58
2022-12-26T09:51:40.968Z,10.64
2022-12-26T09:54:37.763Z,10.68
2022-12-26T09:57:14.869Z,10.71
2022-12-26T09:59:49.590Z,10.73
2022-12-26T10:02:21.815Z,10.75
2022-12-26T10:04:49.115Z,10.81
2022-12-26T10:07:38.278Z,10.82
2022-12-26T10:10:12.507Z,10.85
2022-12-26T10:12:42.093Z,10.90
2022-12-26T10:15:29.927Z,10.92
2022-12-26T10:18:04.125Z,10.95
2022-12-26T10:20:36.960Z,10.98
2022-12-26T10:23:28.792Z,11.02
2022-12-26T10:26:19.020Z,11.05
2022-12-26T10:28:48.107Z,11.07
2022-12-26T10:31:25.406Z,11.09
2022-12-26T10:34:12.340Z,11.12
2022-12-26T10:36:47.885Z,11.14
2022-12-26T10:39:46.180Z,11.22
2022-12-26T10:42:24.155Z,11.21
2022-12-26T10:44:51.080Z,11.24
2022-12-26T10:47:31.154Z,11.30
2022-12-26T10:50:01.521Z,11.32
2022-12-26T10:52:33.808Z,11.32
2022-12-26T10:55:28.081Z,11.37
2022-12-26T10:57:50.819Z,11.40
2022-12-26T11:00:23.550Z,11.44
2022-12-26T11:03:17.625Z,11.45
2022-12-26T11:08:43.376Z,11.50
2022-12-26T11:11:10.794Z,11.52
2022-12-26T11:13:42.844Z,11.54
2022-12-26T11:16:10.488Z,11.56
2022-12-26T11:18:46.570Z,11.58
2022-12-26T11:21:14.694Z,11.60
2022-12-26T11:23:41.574Z,11.62
2022-12-26T11:26:23.921Z,11.65
2022-12-26T11:29:15.046Z,11.67
2022-12-26T11:31:44.675Z,11.69
2022-12-26T11:34:17.705Z,11.72
2022-12-26T11:36:50.122Z,11.73
2022-12-26T11:39:29.325Z,11.76
2022-12-26T11:41:56.505Z,11.75
2022-12-26T11:44:30.777Z,11.75
2022-12-26T11:47:29.460Z,11.78
2022-12-26T11:50:06.317Z,11.79
2022-12-26T11:52:42.724Z,11.81
2022-12-26T11:55:25.088Z,11.83
2022-12-26T11:58:07.033Z,11.85
2022-12-26T12:01:05.987Z,11.85
2022-12-26T12:03:48.668Z,11.88
2022-12-26T12:06:40.725Z,11.90
2022-12-26T12:09:19.597Z,11.92
2022-12-26T12:12:12.633Z,11.93
2022-12-26T12:14:57.546Z,11.94
2022-12-26T12:17:49.314Z,11.95
2022-12-26T12:20:35.342Z,11.96
2022-12-26T12:23:35.760Z,11.96
2022-12-26T12:26:06.041Z,11.97
2022-12-26T12:28:54.342Z,11.98
2022-12-26T12:31:36.917Z,12.01
2022-12-26T12:34:09.816Z,12.02
2022-12-26T12:36:49.417Z,12.03
2022-12-26T12:39:19.140Z,12.04
2022-12-26T12:42:01.306Z,12.06
2022-12-26T12:44:40.265Z,12.07
2022-12-26T12:47:28.531Z,12.08
2022-12-26T12:50:17.550Z,12.08
2022-12-26T12:52:57.516Z,12.09
2022-12-26T12:55:59.370Z,12.09
2022-12-26T12:58:35.026Z,12.09
2022-12-26T13:01:07.611Z,12.10
2022-12-26T13:04:13.442Z,12.11
2022-12-26T13:06:52.116Z,12.11
2022-12-26T13:09:31.106Z,12.12
2022-12-26T13:12:02.911Z,12.11
2022-12-26T13:14:44.169Z,12.11
2022-12-26T13:17:19.623Z,12.12
2022-12-26T13:20:10.179Z,12.11
2022-12-26T13:23:08.179Z,12.12
2022-12-26T13:25:39.641Z,12.11
2022-12-26T13:28:12.340Z,12.11
2022-12-26T13:30:40.015Z,12.13
2022-12-26T13:33:07.052Z,12.12
2022-12-26T13:35:54.267Z,12.12
2022-12-26T13:38:23.624Z,12.13
2022-12-26T13:41:18.336Z,12.13
2022-12-26T13:44:08.726Z,12.14
2022-12-26T13:46:40.406Z,12.14
2022-12-26T13:49:36.622Z,12.13
2022-12-26T13:52:12.344Z,12.14
2022-12-26T13:54:48.369Z,12.14
2022-12-26T13:57:41.372Z,12.14
2022-12-26T14:00:08.946Z,12.14
2022-12-26T14:03:20.550Z,12.15
2022-12-26T14:05:59.845Z,12.16
2022-12-26T14:08:49.825Z,12.17
2022-12-26T14:11:52.236Z,12.17
2022-12-26T14:14:37.090Z,12.16
2022-12-26T14:17:25.734Z,12.15
2022-12-26T14:20:07.901Z,12.14
2022-12-26T14:23:00.279Z,12.07
2022-12-26T14:25:50.508Z,12.02
2022-12-26T14:28:33.065Z,11.99
2022-12-26T14:31:19.077Z,11.95
2022-12-26T14:34:10.767Z,11.88
2022-12-26T14:37:21.738Z,11.83
2022-12-26T14:40:09.239Z,11.79
2022-12-26T14:43:10.893Z,11.76
2022-12-26T14:45:40.443Z,11.71
2022-12-26T14:48:16.290Z,11.67
2022-12-26T14:50:45.794Z,11.63
2022-12-26T14:53:27.830Z,11.60
2022-12-26T14:56:07.682Z,11.58
2022-12-26T14:58:42.159Z,11.55
2022-12-26T15:01:13.230Z,11.51
2022-12-26T15:03:58.656Z,11.50
2022-12-26T15:06:34.636Z,11.47
2022-12-26T15:09:25.896Z,11.44
2022-12-26T15:12:31.921Z,11.41
2022-12-26T15:15:39.526Z,11.41
2022-12-26T15:18:21.517Z,11.39
2022-12-26T15:21:15.788Z,11.35
2022-12-26T15:23:54.708Z,11.37
2022-12-26T15:26:38.081Z,11.32
2022-12-26T15:29:25.734Z,11.32
2022-12-26T15:31:58.735Z,11.31
2022-12-26T15:34:43.528Z,11.29
2022-12-26T15:37:35.174Z,11.28
2022-12-26T15:40:25.901Z,11.24
2022-12-26T15:43:04.793Z,11.22
2022-12-26T15:45:48.634Z,11.18
2022-12-26T15:48:24.527Z,11.16
2022-12-26T15:50:54.394Z,11.11
2022-12-26T15:53:49.572Z,11.10
2022-12-26T15:56:39.525Z,11.07
2022-12-26T15:59:35.107Z,11.07
2022-12-26T16:02:02.256Z,11.06
2022-12-26T16:04:40.380Z,11.02
2022-12-26T16:07:17.357Z,10.99
2022-12-26T16:09:46.705Z,10.95
2022-12-26T16:12:29.994Z,10.95
2022-12-26T16:15:15.590Z,10.90
2022-12-26T16:17:43.365Z,10.86
2022-12-26T16:20:44.078Z,10.83
2022-12-26T16:23:19.556Z,10.85
2022-12-26T16:25:51.609Z,10.80
2022-12-26T16:28:29.314Z,10.79
2022-12-26T16:30:57.316Z,10.73
2022-12-26T16:33:24.279Z,10.72
2022-12-26T16:35:54.947Z,10.72
2022-12-26T16:38:29.694Z,10.68
2022-12-26T16:40:58.315Z,10.62
2022-12-26T16:43:28.660Z,10.62
2022-12-26T16:46:00.716Z,10.63
2022-12-26T16:48:29.800Z,10.60
2022-12-26T16:50:59.150Z,10.56
2022-12-26T16:53:43.216Z,10.54
2022-12-26T16:56:25.361Z,10.53
2022-12-26T16:59:15.356Z,10.48
2022-12-26T17:01:50.043Z,10.46
2022-12-26T17:04:19.667Z,10.44
2022-12-26T17:06:51.671Z,10.44
2022-12-26T17:09:19.077Z,10.41
2022-12-26T17:11:58.500Z,10.42
2022-12-26T17:14:28.604Z,10.36
2022-12-26T17:17:03.484Z,10.31
2022-12-26T17:19:35.652Z,10.33
2022-12-26T17:22:14.797Z,10.29
2022-12-26T17:24:42.558Z,10.28
2022-12-26T17:27:15.451Z,10.26
2022-12-26T17:29:59.643Z,10.27
2022-12-26T17:32:35.357Z,10.21
2022-12-26T17:35:11.646Z,10.21
2022-12-26T17:37:38.676Z,10.18
2022-12-26T17:40:14.720Z,10.18
2022-12-26T17:42:44.895Z,10.12
2022-12-26T17:45:20.799Z,10.09
2022-12-26T17:47:47.790Z,10.09
2022-12-26T17:50:14.760Z,10.05
2022-12-26T17:52:42.688Z,10.02
2022-12-26T17:55:17.410Z,10.02
2022-12-26T17:57:44.353Z,10.00
2022-12-26T18:00:16.855Z,10.01
2022-12-26T18:02:43.857Z,9.96
2022-12-26T18:05:10.820Z,10.00
2022-12-26T18:07:37.966Z,9.90
2022-12-26T18:10:05.619Z,9.90
2022-12-26T18:12:32.965Z,9.91
2022-12-26T18:15:02.478Z,9.86
2022-12-26T18:17:32.460Z,9.87
2022-12-26T18:20:00.717Z,9.87
2022-12-26T18:22:28.518Z,9.83
2022-12-26T18:24:55.436Z,9.80
2022-12-26T18:27:27.891Z,9.73
2022-12-26T18:29:54.774Z,9.72
2022-12-26T18:32:24.883Z,9.67
2022-12-26T18:34:52.670Z,9.62
2022-12-26T18:37:20.460Z,9.63
2022-12-26T18:39:47.372Z,9.68
2022-12-26T18:42:16.303Z,9.68
2022-12-26T18:44:43.883Z,9.61
2022-12-26T18:47:16.285Z,9.54
2022-12-26T18:49:43.864Z,9.57
2022-12-26T18:52:11.684Z,9.54
2022-12-26T18:54:44.555Z,9.52
2022-12-26T18:57:16.869Z,9.50
2022-12-26T18:59:43.746Z,9.54
2022-12-26T19:02:20.158Z,9.50
2022-12-26T19:04:48.804Z,9.44
2022-12-26T19:07:17.381Z,9.41
2022-12-26T19:09:45.844Z,9.41
2022-12-26T19:12:12.923Z,9.40
2022-12-26T19:14:39.902Z,9.40
2022-12-26T19:17:06.826Z,9.38
2022-12-26T19:19:33.847Z,9.40
2022-12-26T19:22:00.737Z,9.31
2022-12-26T19:24:27.615Z,9.33
2022-12-26T19:26:54.546Z,9.25
2022-12-26T19:29:21.462Z,9.24
2022-12-26T19:31:48.502Z,9.21
2022-12-26T19:34:15.400Z,9.21
2022-12-26T19:36:42.278Z,9.13
2022-12-26T19:39:09.437Z,9.15
2022-12-26T19:41:36.362Z,9.21
2022-12-26T19:44:03.213Z,9.15
2022-12-26T19:46:30.140Z,9.11
2022-12-26T19:48:57.032Z,8.99
2022-12-26T19:51:23.936Z,9.02
2022-12-26T19:53:50.887Z,9.08
2022-12-26T19:56:25.691Z,9.17
2022-12-26T19:58:56.706Z,9.10
2022-12-26T20:01:32.044Z,9.06
2022-12-26T20:04:01.905Z,8.97
2022-12-26T20:06:30.595Z,8.97
2022-12-26T20:08:59.360Z,8.96
2022-12-26T20:11:33.299Z,8.98
2022-12-26T20:14:02.137Z,8.89
2022-12-26T20:19:15.986Z,8.78
2022-12-26T20:21:42.911Z,8.82
2022-12-26T20:24:11.899Z,8.82
2022-12-26T20:26:39.631Z,8.78
2022-12-26T20:29:06.783Z,8.70
2022-12-26T20:31:33.897Z,8.74
2022-12-26T20:34:01.664Z,8.69
2022-12-26T20:36:31.425Z,8.62
2022-12-26T20:39:00.958Z,8.66
2022-12-26T20:41:28.803Z,8.60
2022-12-26T20:43:56.434Z,8.62
2022-12-26T20:46:29.488Z,8.54
2022-12-26T20:48:56.516Z,8.53
2022-12-26T20:51:28.968Z,8.46
2022-12-26T20:53:58.834Z,8.49
2022-12-26T20:56:25.728Z,8.58
2022-12-26T20:58:52.700Z,8.65
2022-12-26T21:01:23.646Z,8.63
2022-12-26T21:03:53.199Z,8.60
2022-12-26T21:06:22.636Z,8.52
2022-12-26T21:08:51.128Z,8.53
2022-12-26T21:11:23.379Z,8.61
2022-12-26T21:13:51.734Z,8.65
2022-12-26T21:16:22.944Z,8.65
2022-12-26T21:18:50.354Z,8.44
2022-12-26T21:21:20.491Z,8.48
2022-12-26T21:23:47.666Z,8.41
2022-12-26T21:26:15.637Z,8.41
2022-12-26T21:28:42.740Z,8.29
2022-12-26T21:31:11.172Z,8.33
2022-12-26T21:33:44.316Z,8.14
2022-12-26T21:36:13.729Z,8.10
2022-12-26T21:38:41.134Z,8.17
2022-12-26T21:41:09.853Z,8.18
2022-12-26T21:43:36.942Z,8.19
2022-12-26T21:46:14.374Z,8.26
2022-12-26T21:48:47.515Z,8.24
2022-12-26T21:51:15.712Z,8.26
2022-12-26T21:53:43.395Z,8.23
2022-12-26T21:56:11.925Z,8.18
2022-12-26T21:58:57.440Z,8.22
2022-12-26T22:01:25.781Z,8.31
2022-12-26T22:04:12.178Z,8.12
2022-12-26T22:06:39.628Z,8.02
2022-12-26T22:09:07.279Z,8.03
2022-12-26T22:11:52.525Z,8.04
2022-12-26T22:14:19.562Z,7.95
2022-12-26T22:16:46.468Z,7.99
2022-12-26T22:19:13.403Z,7.98
2022-12-26T22:21:40.348Z,7.87
2022-12-26T22:24:07.434Z,7.91
2022-12-26T22:26:34.358Z,7.81
2022-12-26T22:29:01.254Z,7.75
2022-12-26T22:31:32.447Z,7.78
2022-12-26T22:34:03.730Z,7.87
2022-12-26T22:36:31.224Z,7.93
2022-12-26T22:38:58.946Z,7.92
2022-12-26T22:41:26.385Z,7.87
2022-12-26T22:43:53.263Z,7.92
2022-12-26T22:46:20.296Z,8.01
2022-12-26T22:48:47.354Z,8.02
2022-12-26T22:51:19.754Z,8.01
2022-12-26T22:53:47.361Z,7.88
2022-12-26T22:56:14.867Z,7.91
2022-12-26T22:58:41.793Z,7.88
2022-12-26T23:01:17.572Z,7.94
2022-12-26T23:03:44.653Z,7.97
2022-12-26T23:06:23.219Z,7.95
2022-12-26T23:08:52.008Z,7.99
2022-12-26T23:11:19.205Z,8.01
2022-12-26T23:13:46.676Z,7.98
2022-12-26T23:16:37.178Z,7.96
2022-12-26T23:19:39.270Z,7.91
2022-12-26T23:22:06.403Z,7.76
2022-12-26T23:24:33.889Z,7.73
2022-12-26T23:27:27.113Z,7.80
2022-12-26T23:30:13.580Z,7.90
2022-12-26T23:32:41.952Z,7.89
2022-12-26T23:35:09.956Z,8.01
2022-12-26T23:37:38.223Z,7.92
2022-12-26T23:40:06.000Z,7.92
2022-12-26T23:42:32.901Z,8.03
2022-12-26T23:44:59.869Z,8.11
2022-12-26T23:47:26.923Z,8.16
2022-12-26T23:49:53.792Z,8.26
2022-12-26T23:52:24.184Z,8.30
2022-12-26T23:54:53.719Z,8.37
2022-12-26T23:57:20.640Z,8.37
2022-12-26T23:59:47.787Z,8.39
